Terminal Aerodrome Forecast
Issued by NWS Newport/Morehead City, NC

Home | Current Version | Previous Version | Graphics & Text | Print | Product List | Glossary On
Versions: 1 2 3 4 5 6 7 8 9 10 11 12 13 14 15 16 17 18 19 20 21 22 23 24 25
000
FTUS42 KMHX 311720
TAFEWN
TAF
KEWN 311720Z 3118/0118 VRB05KT P6SM VCTS BKN050CB
     FM010200 17003KT P6SM VCSH SCT040 BKN250
     FM010800 00000KT 5SM BR VCSH BKN040
     FM011200 20001KT P6SM VCSH SCT250=

USA.gov is the U.S. government's official web portal to all federal, state and local government web resources and services.